Time;durP1;ratioP1;P1;durP2;ratioP2;P2;SDS_P1;SDS_P2;PMS_P1;PMS_P2;Temp;Humidity;BMP_temperature;BMP_pressure;BME280_temperature;BME280_humidity;BME280_pressure;Samples;Min_cycle;Max_cycle;Signal;HPM_P1;HPM_P2
2022/11/24 00:01:41;;;;;;;11.88;6.53;;;;;;;;;;5063595;28;20071;-59
2022/11/24 00:04:07;;;;;;;7.40;5.53;;;;;;;;;;5063970;28;20072;-59
2022/11/24 00:06:34;;;;;;;7.35;5.20;;;;;;;;;;5064310;28;20082;-59
2022/11/24 00:09:01;;;;;;;10.98;7.53;;;;;;;;;;5063004;28;20083;-59
2022/11/24 00:11:28;;;;;;;11.20;6.22;;;;;;;;;;5063359;28;20438;-59
2022/11/24 00:13:54;;;;;;;8.68;6.47;;;;;;;;;;5062834;28;20044;-59
2022/11/24 00:16:22;;;;;;;7.75;5.80;;;;;;;;;;5064239;28;20056;-59
2022/11/24 00:18:48;;;;;;;7.95;5.20;;;;;;;;;;5063712;28;20037;-59
2022/11/24 00:21:15;;;;;;;8.90;5.68;;;;;;;;;;5062761;28;20059;-59
2022/11/24 00:23:42;;;;;;;9.63;5.10;;;;;;;;;;5069978;28;20052;-59
2022/11/24 00:26:12;;;;;;;9.77;6.15;;;;;;;;;;5070543;28;20479;-59
2022/11/24 00:28:39;;;;;;;10.27;5.90;;;;;;;;;;5069786;28;20548;-59
2022/11/24 00:31:13;;;;;;;11.65;6.38;;;;;;;;;;5070406;28;20407;-60
2022/11/24 00:33:39;;;;;;;9.70;6.15;;;;;;;;;;5070468;28;20046;-60
2022/11/24 00:36:05;;;;;;;7.55;4.85;;;;;;;;;;5069414;28;20049;-60
2022/11/24 00:38:31;;;;;;;7.78;4.50;;;;;;;;;;5070740;28;20042;-60
2022/11/24 00:40:57;;;;;;;9.68;5.20;;;;;;;;;;5069968;28;20119;-61
2022/11/24 00:43:23;;;;;;;6.55;4.38;;;;;;;;;;5069877;28;20071;-60
2022/11/24 00:45:49;;;;;;;6.57;4.82;;;;;;;;;;5070605;28;20041;-60
2022/11/24 00:48:16;;;;;;;12.27;5.63;;;;;;;;;;5070095;28;20453;-60
2022/11/24 00:50:42;;;;;;;9.20;5.05;;;;;;;;;;5067895;28;20040;-60
2022/11/24 00:53:08;;;;;;;10.13;5.90;;;;;;;;;;5070761;28;20459;-60
2022/11/24 00:55:34;;;;;;;12.27;5.03;;;;;;;;;;5070609;28;20498;-59
2022/11/24 00:58:00;;;;;;;7.32;4.43;;;;;;;;;;5069058;28;20044;-57
2022/11/24 01:00:26;;;;;;;8.85;5.60;;;;;;;;;;5068615;28;20044;-57
2022/11/24 01:02:52;;;;;;;9.20;5.40;;;;;;;;;;5070452;28;20041;-60
2022/11/24 01:05:18;;;;;;;10.25;5.90;;;;;;;;;;5068557;28;20104;-58
2022/11/24 01:07:44;;;;;;;10.32;5.68;;;;;;;;;;5069224;28;20430;-58
2022/11/24 01:10:10;;;;;;;8.70;5.25;;;;;;;;;;5069157;28;20135;-59
2022/11/24 01:12:36;;;;;;;14.00;6.43;;;;;;;;;;5070209;28;20541;-59
2022/11/24 01:15:03;;;;;;;8.90;4.40;;;;;;;;;;5069972;28;20079;-58
2022/11/24 01:17:29;;;;;;;8.65;5.50;;;;;;;;;;5068560;28;20048;-58
2022/11/24 01:19:55;;;;;;;7.18;4.30;;;;;;;;;;5069400;28;20384;-58
2022/11/24 01:22:21;;;;;;;8.05;4.15;;;;;;;;;;5069854;28;20051;-59
2022/11/24 01:24:47;;;;;;;6.97;3.95;;;;;;;;;;5101757;27;20079;-58
2022/11/24 01:27:13;;;;;;;10.38;4.40;;;;;;;;;;5069851;28;20083;-59
2022/11/24 01:29:39;;;;;;;11.68;4.65;;;;;;;;;;5070207;28;20079;-59
2022/11/24 01:32:05;;;;;;;9.93;4.07;;;;;;;;;;5068895;28;20036;-58
2022/11/24 01:34:31;;;;;;;11.05;4.65;;;;;;;;;;5066981;28;20051;-58
2022/11/24 01:36:57;;;;;;;10.18;4.10;;;;;;;;;;5066753;28;20045;-58
2022/11/24 01:39:23;;;;;;;12.00;4.43;;;;;;;;;;5065410;28;20048;-59
2022/11/24 01:41:51;;;;;;;13.63;5.63;;;;;;;;;;5066794;28;20045;-58
2022/11/24 01:44:25;;;;;;;9.07;4.28;;;;;;;;;;5065773;28;20459;-59
2022/11/24 01:47:04;;;;;;;11.82;5.53;;;;;;;;;;5064317;28;20048;-59
2022/11/24 01:49:36;;;;;;;11.05;4.10;;;;;;;;;;5066413;28;20036;-59
2022/11/24 01:52:12;;;;;;;12.38;4.15;;;;;;;;;;5066386;28;20044;-59
2022/11/24 01:54:42;;;;;;;13.02;4.10;;;;;;;;;;5066430;28;20037;-58
2022/11/24 01:57:37;;;;;;;10.50;4.75;;;;;;;;;;5066404;28;20059;-59
2022/11/24 02:00:06;;;;;;;10.93;3.95;;;;;;;;;;5059578;28;20147;-58
2022/11/24 02:02:32;;;;;;;9.15;4.35;;;;;;;;;;5066585;28;20048;-57
2022/11/24 02:05:00;;;;;;;9.55;4.25;;;;;;;;;;5066056;28;20048;-58
2022/11/24 02:07:26;;;;;;;6.78;3.65;;;;;;;;;;5065825;28;20467;-59
2022/11/24 02:09:56;;;;;;;8.13;3.58;;;;;;;;;;5098332;27;20076;-59
2022/11/24 02:12:22;;;;;;;11.07;3.85;;;;;;;;;;5065707;28;20604;-59
2022/11/24 02:14:49;;;;;;;7.72;3.13;;;;;;;;;;5065345;28;20384;-58
2022/11/24 02:17:15;;;;;;;5.90;3.20;;;;;;;;;;5065882;28;20127;-58
2022/11/24 02:19:41;;;;;;;8.90;2.80;;;;;;;;;;5066849;28;20190;-59
2022/11/24 02:22:11;;;;;;;5.00;2.47;;;;;;;;;;5064670;28;20162;-59
2022/11/24 02:24:42;;;;;;;9.25;2.97;;;;;;;;;;5065899;28;20051;-59
2022/11/24 02:27:10;;;;;;;6.70;3.03;;;;;;;;;;5065693;28;20051;-59
2022/11/24 02:29:36;;;;;;;8.85;2.97;;;;;;;;;;5065560;28;20032;-59
2022/11/24 02:32:04;;;;;;;6.65;2.65;;;;;;;;;;5065428;28;20044;-59
2022/11/24 02:34:30;;;;;;;5.72;2.20;;;;;;;;;;5065500;28;20150;-60
2022/11/24 02:36:56;;;;;;;5.22;2.10;;;;;;;;;;5065184;28;20077;-59
2022/11/24 02:39:22;;;;;;;5.47;2.47;;;;;;;;;;5065934;28;20044;-59
2022/11/24 02:41:59;;;;;;;7.13;2.88;;;;;;;;;;5062723;28;20596;-59
2022/11/24 02:44:28;;;;;;;4.38;2.35;;;;;;;;;;5062425;28;20407;-59
2022/11/24 02:47:05;;;;;;;7.78;2.85;;;;;;;;;;5063782;28;20033;-59
2022/11/24 02:49:31;;;;;;;3.20;2.20;;;;;;;;;;5061352;28;20127;-59
2022/11/24 02:51:58;;;;;;;5.47;2.83;;;;;;;;;;5065063;28;20538;-59
2022/11/24 02:54:24;;;;;;;6.35;2.03;;;;;;;;;;5065600;28;20041;-59
2022/11/24 02:56:50;;;;;;;4.28;1.85;;;;;;;;;;5064867;28;20036;-59
2022/11/24 02:59:17;;;;;;;2.60;1.45;;;;;;;;;;5064976;28;20443;-59
2022/11/24 03:01:43;;;;;;;5.70;1.73;;;;;;;;;;5065389;28;20040;-58
2022/11/24 03:04:09;;;;;;;3.67;1.80;;;;;;;;;;5064075;28;20129;-59
2022/11/24 03:06:35;;;;;;;6.90;1.83;;;;;;;;;;5065482;28;20521;-59
2022/11/24 03:09:01;;;;;;;6.75;1.92;;;;;;;;;;5064516;28;20049;-59
2022/11/24 03:11:27;;;;;;;4.18;1.50;;;;;;;;;;5064222;28;20049;-59
2022/11/24 03:13:53;;;;;;;4.07;1.10;;;;;;;;;;5064848;28;20049;-59
2022/11/24 03:16:19;;;;;;;4.82;2.17;;;;;;;;;;5065910;28;20044;-59
2022/11/24 03:18:47;;;;;;;3.15;1.42;;;;;;;;;;5063980;28;20052;-59
2022/11/24 03:21:13;;;;;;;4.00;1.83;;;;;;;;;;5063325;28;20373;-59
2022/11/24 03:23:39;;;;;;;3.08;1.77;;;;;;;;;;5064375;28;20051;-60
2022/11/24 03:26:09;;;;;;;2.58;1.30;;;;;;;;;;5064540;28;20040;-59
2022/11/24 03:28:35;;;;;;;6.35;1.40;;;;;;;;;;5065044;28;20049;-60
2022/11/24 03:31:01;;;;;;;6.47;1.67;;;;;;;;;;5063539;28;20460;-59
2022/11/24 03:33:28;;;;;;;6.20;2.28;;;;;;;;;;5064972;28;20086;-59
2022/11/24 03:35:54;;;;;;;4.18;1.70;;;;;;;;;;5064152;28;20048;-59
2022/11/24 03:38:20;;;;;;;6.07;2.47;;;;;;;;;;5064093;28;20070;-59
2022/11/24 03:40:46;;;;;;;5.13;1.80;;;;;;;;;;5064433;28;20032;-58
2022/11/24 03:43:12;;;;;;;4.93;2.15;;;;;;;;;;5064152;28;20097;-59
2022/11/24 03:45:39;;;;;;;6.35;1.63;;;;;;;;;;5064159;28;20036;-59
2022/11/24 03:48:05;;;;;;;6.00;2.10;;;;;;;;;;5064194;28;20048;-59
2022/11/24 03:50:31;;;;;;;3.80;1.88;;;;;;;;;;5064720;28;20036;-59
2022/11/24 03:52:57;;;;;;;4.07;2.20;;;;;;;;;;5063515;28;20049;-60
2022/11/24 03:55:23;;;;;;;8.32;2.67;;;;;;;;;;5064204;28;20090;-59
2022/11/24 03:57:49;;;;;;;5.68;2.13;;;;;;;;;;5063739;28;20048;-60
2022/11/24 04:00:15;;;;;;;8.98;3.00;;;;;;;;;;5062903;28;20089;-59
2022/11/24 04:02:41;;;;;;;10.02;2.05;;;;;;;;;;5064659;28;20048;-59
2022/11/24 04:05:08;;;;;;;5.18;1.73;;;;;;;;;;5063442;28;20044;-59
2022/11/24 04:07:34;;;;;;;4.25;1.30;;;;;;;;;;5063611;28;20037;-59
2022/11/24 04:10:00;;;;;;;3.10;1.33;;;;;;;;;;5063795;28;20109;-59
2022/11/24 04:12:45;;;;;;;2.60;1.58;;;;;;;;;;5064556;28;20620;-59
2022/11/24 04:15:15;;;;;;;5.40;1.67;;;;;;;;;;5063050;28;20044;-59
2022/11/24 04:17:41;;;;;;;4.13;1.20;;;;;;;;;;5064559;28;20119;-59
2022/11/24 04:20:07;;;;;;;6.38;1.60;;;;;;;;;;5062952;28;20106;-59
2022/11/24 04:22:34;;;;;;;3.63;1.70;;;;;;;;;;5064202;28;20102;-59
2022/11/24 04:25:00;;;;;;;4.88;1.58;;;;;;;;;;5063793;28;20049;-59
2022/11/24 04:27:26;;;;;;;7.15;2.30;;;;;;;;;;5063612;28;20036;-59
2022/11/24 04:29:52;;;;;;;6.28;2.20;;;;;;;;;;5064037;28;20040;-59
2022/11/24 04:32:18;;;;;;;6.60;1.50;;;;;;;;;;5063932;28;20051;-59
2022/11/24 04:34:44;;;;;;;5.88;1.30;;;;;;;;;;5062960;28;20040;-59
2022/11/24 04:37:10;;;;;;;7.72;1.90;;;;;;;;;;5063489;28;20094;-59
2022/11/24 04:39:36;;;;;;;5.60;2.13;;;;;;;;;;5063972;28;20036;-59
2022/11/24 04:42:02;;;;;;;3.75;1.58;;;;;;;;;;5063235;28;20568;-59
2022/11/24 04:44:28;;;;;;;5.57;2.03;;;;;;;;;;5064438;28;20040;-59
2022/11/24 04:46:54;;;;;;;5.25;1.55;;;;;;;;;;5063864;28;20048;-59
2022/11/24 04:49:20;;;;;;;4.78;1.33;;;;;;;;;;5063431;28;20040;-59
2022/11/24 04:51:46;;;;;;;2.25;0.93;;;;;;;;;;5063893;28;20047;-58
2022/11/24 04:54:13;;;;;;;3.20;0.70;;;;;;;;;;5063158;28;21120;-59
2022/11/24 04:56:39;;;;;;;3.92;1.63;;;;;;;;;;5063474;28;20037;-59
2022/11/24 04:59:05;;;;;;;6.07;1.63;;;;;;;;;;5063445;28;20056;-59
2022/11/24 05:01:31;;;;;;;3.72;1.13;;;;;;;;;;5062810;28;20059;-59
2022/11/24 05:03:57;;;;;;;7.15;1.73;;;;;;;;;;5062581;28;20182;-59
2022/11/24 05:06:24;;;;;;;5.13;2.15;;;;;;;;;;5065856;28;20040;-59
2022/11/24 05:08:50;;;;;;;4.05;2.00;;;;;;;;;;5063421;28;20044;-59
2022/11/24 05:11:16;;;;;;;4.30;1.40;;;;;;;;;;5065970;28;20187;-58
2022/11/24 05:13:42;;;;;;;10.10;2.75;;;;;;;;;;5067659;28;20044;-58
2022/11/24 05:16:09;;;;;;;7.38;1.50;;;;;;;;;;5081786;28;20059;-59
2022/11/24 05:18:36;;;;;;;6.50;2.03;;;;;;;;;;5068896;28;20044;-59
2022/11/24 05:21:03;;;;;;;2.67;1.20;;;;;;;;;;5067125;28;20046;-59
2022/11/24 05:23:29;;;;;;;4.25;1.15;;;;;;;;;;5066224;28;20036;-59
2022/11/24 05:25:58;;;;;;;2.58;1.00;;;;;;;;;;5067056;28;20403;-59
2022/11/24 05:28:24;;;;;;;4.65;1.88;;;;;;;;;;5066240;28;20037;-59
2022/11/24 05:30:50;;;;;;;3.67;1.50;;;;;;;;;;5066468;28;20514;-59
2022/11/24 05:33:17;;;;;;;6.63;1.60;;;;;;;;;;5066347;28;20040;-59
2022/11/24 05:35:47;;;;;;;4.10;1.92;;;;;;;;;;5066730;28;20044;-59
2022/11/24 05:38:14;;;;;;;9.95;2.13;;;;;;;;;;5066461;28;20106;-59
2022/11/24 05:40:40;;;;;;;7.43;1.88;;;;;;;;;;5067396;28;20041;-59
2022/11/24 05:43:10;;;;;;;4.05;1.58;;;;;;;;;;5068565;28;20076;-59
2022/11/24 05:45:36;;;;;;;5.43;1.77;;;;;;;;;;5066452;28;20045;-59
2022/11/24 05:48:06;;;;;;;4.18;1.30;;;;;;;;;;5065580;28;20066;-59
2022/11/24 05:50:33;;;;;;;6.05;1.58;;;;;;;;;;5066992;28;20048;-58
2022/11/24 05:53:03;;;;;;;3.78;1.33;;;;;;;;;;5065857;28;20106;-58
2022/11/24 05:55:29;;;;;;;3.45;1.60;;;;;;;;;;5066768;28;20735;-59
2022/11/24 05:58:02;;;;;;;3.03;1.20;;;;;;;;;;5066442;28;20044;-59
2022/11/24 06:00:29;;;;;;;2.38;1.23;;;;;;;;;;5066189;28;20093;-59
2022/11/24 06:02:56;;;;;;;6.28;1.73;;;;;;;;;;5067532;28;20040;-58
2022/11/24 06:05:22;;;;;;;5.25;2.03;;;;;;;;;;5065957;28;20040;-59
2022/11/24 06:07:48;;;;;;;2.13;1.15;;;;;;;;;;5066818;28;20419;-59
2022/11/24 06:10:15;;;;;;;4.53;1.52;;;;;;;;;;5065995;28;20048;-59
2022/11/24 06:12:42;;;;;;;5.50;2.10;;;;;;;;;;5065991;28;20090;-59
2022/11/24 06:15:10;;;;;;;6.53;1.65;;;;;;;;;;5066247;28;20455;-59
2022/11/24 06:17:36;;;;;;;6.40;2.05;;;;;;;;;;5065983;28;20510;-58
2022/11/24 06:20:02;;;;;;;4.78;2.22;;;;;;;;;;5064858;28;20060;-59
2022/11/24 06:22:28;;;;;;;8.65;1.83;;;;;;;;;;5066131;28;20041;-59
2022/11/24 06:24:54;;;;;;;3.83;1.70;;;;;;;;;;5065871;28;20067;-59
2022/11/24 06:27:20;;;;;;;3.67;1.95;;;;;;;;;;5065356;28;20076;-59
2022/11/24 06:29:46;;;;;;;4.45;1.08;;;;;;;;;;5065401;28;20194;-59
2022/11/24 06:32:12;;;;;;;4.45;1.10;;;;;;;;;;5064600;28;20074;-59
2022/11/24 06:34:38;;;;;;;6.20;1.80;;;;;;;;;;5065787;28;20044;-58
2022/11/24 06:37:05;;;;;;;5.57;1.55;;;;;;;;;;5064966;28;20063;-58
2022/11/24 06:39:31;;;;;;;6.35;1.58;;;;;;;;;;5066196;28;20468;-58
2022/11/24 06:41:57;;;;;;;5.47;1.67;;;;;;;;;;5065308;28;20131;-59
2022/11/24 06:44:23;;;;;;;5.93;2.20;;;;;;;;;;5064955;28;20052;-59
2022/11/24 06:46:49;;;;;;;6.32;1.98;;;;;;;;;;5062984;28;20086;-58
2022/11/24 06:49:15;;;;;;;3.92;2.05;;;;;;;;;;5063869;28;20048;-59
2022/11/24 06:51:41;;;;;;;5.50;1.50;;;;;;;;;;5068391;28;20410;-59
2022/11/24 06:54:08;;;;;;;4.75;1.70;;;;;;;;;;5065187;28;20063;-58
2022/11/24 06:56:34;;;;;;;1.38;0.90;;;;;;;;;;5064892;28;20067;-59
2022/11/24 06:59:00;;;;;;;4.10;1.33;;;;;;;;;;5065210;28;20044;-59
2022/11/24 07:01:27;;;;;;;4.05;1.42;;;;;;;;;;5065477;28;20487;-59
2022/11/24 07:03:54;;;;;;;4.18;1.15;;;;;;;;;;5067118;28;20051;-59
2022/11/24 07:06:20;;;;;;;5.60;1.70;;;;;;;;;;5066024;28;20045;-58
2022/11/24 07:08:47;;;;;;;2.05;1.00;;;;;;;;;;5064808;28;20044;-58
2022/11/24 07:11:15;;;;;;;3.83;1.15;;;;;;;;;;5064848;28;20048;-59
2022/11/24 07:13:42;;;;;;;5.88;1.48;;;;;;;;;;5065311;28;20056;-59
2022/11/24 07:16:12;;;;;;;7.55;2.78;;;;;;;;;;5064202;28;20403;-59
2022/11/24 07:18:38;;;;;;;2.63;1.08;;;;;;;;;;5065815;28;20053;-59
2022/11/24 07:21:04;;;;;;;2.60;1.17;;;;;;;;;;5065414;28;20558;-59
2022/11/24 07:23:30;;;;;;;5.18;1.30;;;;;;;;;;5070069;28;20048;-59
2022/11/24 07:25:56;;;;;;;4.93;1.77;;;;;;;;;;5064900;28;20044;-59
2022/11/24 07:28:22;;;;;;;4.35;2.13;;;;;;;;;;5064419;28;20135;-59
2022/11/24 07:30:48;;;;;;;6.53;1.73;;;;;;;;;;5067928;28;20055;-59
2022/11/24 07:33:15;;;;;;;3.45;1.02;;;;;;;;;;5067145;28;20044;-58
2022/11/24 07:35:40;;;;;;;4.10;1.08;;;;;;;;;;5065730;28;20387;-59
2022/11/24 07:38:07;;;;;;;4.70;1.75;;;;;;;;;;5064378;28;20048;-59
2022/11/24 07:40:32;;;;;;;3.10;1.33;;;;;;;;;;5065082;28;20037;-59
2022/11/24 07:43:00;;;;;;;5.80;1.27;;;;;;;;;;5064952;28;20051;-59
2022/11/24 07:45:26;;;;;;;3.33;1.45;;;;;;;;;;5064863;28;20052;-58
2022/11/24 07:47:52;;;;;;;2.88;1.73;;;;;;;;;;5065265;28;20504;-59
2022/11/24 07:50:18;;;;;;;3.85;1.10;;;;;;;;;;5064080;28;20143;-58
2022/11/24 07:52:44;;;;;;;6.63;2.25;;;;;;;;;;5064606;28;20530;-58
2022/11/24 07:55:10;;;;;;;3.65;1.40;;;;;;;;;;5064640;28;20044;-59
2022/11/24 07:57:36;;;;;;;3.38;1.38;;;;;;;;;;5065259;28;20101;-59
2022/11/24 08:00:04;;;;;;;4.68;1.52;;;;;;;;;;5063535;28;20461;-59
2022/11/24 08:02:31;;;;;;;4.68;2.20;;;;;;;;;;5064883;28;20047;-58
2022/11/24 08:04:57;;;;;;;5.25;1.55;;;;;;;;;;5064449;28;20568;-58
2022/11/24 08:07:23;;;;;;;4.80;1.70;;;;;;;;;;5062909;28;20187;-59
2022/11/24 08:09:52;;;;;;;3.75;1.67;;;;;;;;;;5064946;28;20364;-59
2022/11/24 08:12:21;;;;;;;3.28;1.40;;;;;;;;;;5062568;28;20098;-58
2022/11/24 08:14:50;;;;;;;3.58;1.50;;;;;;;;;;5064352;28;20041;-58
2022/11/24 08:17:17;;;;;;;2.47;1.42;;;;;;;;;;5065638;28;20079;-59
2022/11/24 08:19:43;;;;;;;4.15;2.35;;;;;;;;;;5066546;28;20060;-59
2022/11/24 08:22:09;;;;;;;3.22;1.48;;;;;;;;;;5065261;28;20063;-59
2022/11/24 08:24:35;;;;;;;2.28;1.52;;;;;;;;;;5065866;28;20158;-59
2022/11/24 08:27:01;;;;;;;7.70;2.33;;;;;;;;;;5065092;28;20548;-59
2022/11/24 08:29:28;;;;;;;9.48;2.90;;;;;;;;;;5065486;28;20508;-59
2022/11/24 08:31:56;;;;;;;5.53;2.38;;;;;;;;;;5064746;28;20045;-59
2022/11/24 08:34:22;;;;;;;4.18;1.80;;;;;;;;;;5058763;28;20048;-59
2022/11/24 08:36:49;;;;;;;3.38;1.88;;;;;;;;;;5066626;28;20053;-59
2022/11/24 08:39:15;;;;;;;5.28;2.70;;;;;;;;;;5063530;28;21015;-61
2022/11/24 08:41:41;;;;;;;6.72;2.60;;;;;;;;;;5065439;28;20051;-59
2022/11/24 08:44:09;;;;;;;5.15;2.78;;;;;;;;;;5068797;28;20165;-59
2022/11/24 08:46:35;;;;;;;9.13;2.80;;;;;;;;;;5069268;28;20055;-59
2022/11/24 08:49:01;;;;;;;6.55;2.80;;;;;;;;;;5068599;28;20044;-59
2022/11/24 08:51:27;;;;;;;5.80;2.70;;;;;;;;;;5068881;28;20132;-60
2022/11/24 08:53:57;;;;;;;8.43;3.10;;;;;;;;;;5069520;28;20044;-59
2022/11/24 08:56:23;;;;;;;8.75;4.75;;;;;;;;;;5067526;28;20048;-58
2022/11/24 08:58:50;;;;;;;9.77;3.60;;;;;;;;;;5068376;28;20041;-59
2022/11/24 09:01:17;;;;;;;8.25;3.53;;;;;;;;;;5068142;28;20123;-54
2022/11/24 09:03:43;;;;;;;7.07;4.32;;;;;;;;;;5087011;28;20044;-54
2022/11/24 09:06:10;;;;;;;11.32;3.42;;;;;;;;;;5089617;28;20491;-58
2022/11/24 09:08:37;;;;;;;7.82;2.92;;;;;;;;;;5089277;28;20044;-52
2022/11/24 09:11:04;;;;;;;7.28;3.10;;;;;;;;;;5077636;28;20084;-56
2022/11/24 09:13:30;;;;;;;6.18;3.20;;;;;;;;;;5069666;28;20049;-54
2022/11/24 09:15:57;;;;;;;5.80;3.08;;;;;;;;;;5065704;28;20048;-57
2022/11/24 09:18:22;;;;;;;2.90;2.40;;;;;;;;;;5068379;28;20083;-57
2022/11/24 09:20:49;;;;;;;4.85;2.55;;;;;;;;;;5068466;28;20071;-56
2022/11/24 09:23:15;;;;;;;6.72;3.05;;;;;;;;;;5068000;28;20428;-56
2022/11/24 09:25:40;;;;;;;4.63;2.60;;;;;;;;;;5069144;28;20132;-57
2022/11/24 09:28:06;;;;;;;7.45;2.92;;;;;;;;;;5068213;28;20036;-57
2022/11/24 09:30:32;;;;;;;3.80;2.30;;;;;;;;;;5067948;28;20621;-58
2022/11/24 09:32:58;;;;;;;5.55;2.95;;;;;;;;;;5068150;28;20049;-58
2022/11/24 09:35:24;;;;;;;4.07;2.40;;;;;;;;;;5068054;28;20040;-57
2022/11/24 09:37:50;;;;;;;2.42;1.85;;;;;;;;;;5070821;28;20037;-58
2022/11/24 09:40:17;;;;;;;4.25;2.72;;;;;;;;;;5070562;28;20128;-57
2022/11/24 09:42:48;;;;;;;6.05;2.67;;;;;;;;;;5075989;28;20123;-58
2022/11/24 09:45:33;;;;;;;4.70;2.30;;;;;;;;;;5057760;28;20041;-57
2022/11/24 09:48:07;;;;;;;6.25;2.50;;;;;;;;;;5075485;28;20629;-57
2022/11/24 09:50:35;;;;;;;5.28;3.03;;;;;;;;;;5066586;28;20470;-57
2022/11/24 09:53:04;;;;;;;4.88;2.15;;;;;;;;;;5067729;28;20072;-57
2022/11/24 09:55:30;;;;;;;7.30;2.20;;;;;;;;;;5067123;28;20036;-57
2022/11/24 09:58:19;;;;;;;5.65;2.63;;;;;;;;;;5067319;28;20040;-57
2022/11/24 10:00:47;;;;;;;6.93;2.45;;;;;;;;;;5059959;28;20053;-57
2022/11/24 10:03:20;;;;;;;3.25;2.17;;;;;;;;;;5067492;28;20067;-57
2022/11/24 10:05:46;;;;;;;;;;;;;;;;;;5061982;28;20056;-57
2022/11/24 10:08:19;;;;;;;4.72;1.35;;;;;;;;;;5067857;28;19954;-57
2022/11/24 10:10:59;;;;;;;3.00;1.35;;;;;;;;;;5063892;28;20083;-57
2022/11/24 10:13:45;;;;;;;3.08;1.50;;;;;;;;;;5057765;28;20133;-57
2022/11/24 10:16:11;;;;;;;2.97;1.65;;;;;;;;;;5058096;28;20162;-57
2022/11/24 10:18:43;;;;;;;3.17;1.65;;;;;;;;;;5062472;28;20292;-57
2022/11/24 10:21:12;;;;;;;2.72;1.63;;;;;;;;;;5057511;28;20044;-57
2022/11/24 10:23:48;;;;;;;3.33;1.52;;;;;;;;;;5060991;28;20044;-57
2022/11/24 10:26:18;;;;;;;2.58;1.33;;;;;;;;;;5069767;28;20086;-57
2022/11/24 10:28:54;;;;;;;2.90;1.40;;;;;;;;;;5074963;28;20135;-57
2022/11/24 10:31:28;;;;;;;4.05;1.58;;;;;;;;;;5065145;28;20087;-57
2022/11/24 10:33:55;;;;;;;2.42;1.15;;;;;;;;;;5074633;28;20044;-57
2022/11/24 10:36:34;;;;;;;5.00;1.60;;;;;;;;;;5065569;28;20079;-57
2022/11/24 10:39:08;;;;;;;5.50;1.48;;;;;;;;;;5067153;28;20036;-56
2022/11/24 10:41:37;;;;;;;6.85;2.05;;;;;;;;;;5066134;28;20040;-57
2022/11/24 10:44:03;;;;;;;2.15;1.10;;;;;;;;;;5067055;28;20449;-57
2022/11/24 10:46:30;;;;;;;2.67;1.25;;;;;;;;;;5066962;28;20277;-56
2022/11/24 10:48:58;;;;;;;6.95;1.15;;;;;;;;;;5066518;28;20083;-56
2022/11/24 10:51:30;;;;;;;3.28;1.33;;;;;;;;;;5066079;28;20051;-57
2022/11/24 10:54:00;;;;;;;1.92;1.00;;;;;;;;;;5065870;28;20044;-57
2022/11/24 10:56:27;;;;;;;1.92;0.98;;;;;;;;;;5066059;28;20068;-57
2022/11/24 10:58:53;;;;;;;6.93;1.63;;;;;;;;;;5066150;28;20668;-56
2022/11/24 11:01:21;;;;;;;3.42;1.40;;;;;;;;;;5065711;28;20045;-56
2022/11/24 11:03:55;;;;;;;6.00;2.00;;;;;;;;;;5066205;28;20045;-57
2022/11/24 11:06:22;;;;;;;3.85;1.83;;;;;;;;;;5067177;28;20131;-57
2022/11/24 11:08:48;;;;;;;4.93;2.13;;;;;;;;;;5067165;28;20488;-57
2022/11/24 11:11:17;;;;;;;3.70;1.67;;;;;;;;;;5066733;28;20578;-57
2022/11/24 11:13:57;;;;;;;3.80;1.83;;;;;;;;;;5067662;28;20057;-56
2022/11/24 11:16:23;;;;;;;2.45;1.42;;;;;;;;;;5063436;28;20048;-58
2022/11/24 11:18:49;;;;;;;5.18;1.85;;;;;;;;;;5062344;28;20046;-58
2022/11/24 11:21:48;;;;;;;5.40;1.67;;;;;;;;;;5066866;28;20115;-57
2022/11/24 11:24:15;;;;;;;2.35;1.30;;;;;;;;;;5022339;28;20048;-57
2022/11/24 11:26:42;;;;;;;2.38;1.40;;;;;;;;;;5065912;28;20036;-56
2022/11/24 11:29:09;;;;;;;3.17;1.30;;;;;;;;;;5056958;28;20040;-57
2022/11/24 11:31:35;;;;;;;3.90;1.70;;;;;;;;;;5065869;28;20086;-65
2022/11/24 11:34:04;;;;;;;5.75;1.50;;;;;;;;;;5096374;28;20507;-57
2022/11/24 11:36:31;;;;;;;5.03;1.48;;;;;;;;;;5071304;28;20052;-57
2022/11/24 11:38:58;;;;;;;5.13;2.00;;;;;;;;;;5070317;28;20075;-57
2022/11/24 11:41:27;;;;;;;5.25;1.77;;;;;;;;;;5065421;28;20494;-57
2022/11/24 11:44:01;;;;;;;3.53;1.75;;;;;;;;;;5072733;28;20044;-57
2022/11/24 11:46:30;;;;;;;5.70;1.90;;;;;;;;;;5067011;28;20570;-57
2022/11/24 11:48:56;;;;;;;4.50;1.55;;;;;;;;;;5065868;28;20569;-57
2022/11/24 11:51:47;;;;;;;3.08;1.55;;;;;;;;;;5057189;28;20319;-57
2022/11/24 11:54:32;;;;;;;3.55;1.77;;;;;;;;;;5045832;28;20052;-57
2022/11/24 11:57:11;;;;;;;5.57;1.27;;;;;;;;;;5061264;28;20148;-57
2022/11/24 11:59:46;;;;;;;2.53;1.25;;;;;;;;;;5063388;28;20075;-57
2022/11/24 12:02:24;;;;;;;4.05;2.00;;;;;;;;;;5064872;28;20663;-57
2022/11/24 12:04:51;;;;;;;3.47;1.73;;;;;;;;;;5064898;28;20044;-57
2022/11/24 12:07:20;;;;;;;3.78;1.27;;;;;;;;;;5064849;28;20522;-57
2022/11/24 12:09:49;;;;;;;2.08;1.05;;;;;;;;;;5063091;28;20037;-57
2022/11/24 12:12:34;;;;;;;3.60;1.40;;;;;;;;;;5060269;28;20048;-58
2022/11/24 12:15:06;;;;;;;2.47;1.30;;;;;;;;;;5064632;28;20151;-55
2022/11/24 12:17:39;;;;;;;4.07;1.95;;;;;;;;;;5060571;28;20089;-56
2022/11/24 12:20:16;;;;;;;6.32;1.83;;;;;;;;;;5068804;28;20071;-56
2022/11/24 12:22:48;;;;;;;4.03;1.60;;;;;;;;;;5064593;28;20044;-58
2022/11/24 12:25:23;;;;;;;4.10;1.42;;;;;;;;;;5062798;28;20052;-57
2022/11/24 12:28:04;;;;;;;8.77;2.13;;;;;;;;;;5064501;28;20036;-57
2022/11/24 12:30:50;;;;;;;7.40;2.58;;;;;;;;;;5063163;28;20448;-57
2022/11/24 12:33:24;;;;;;;7.05;2.28;;;;;;;;;;5056165;28;20058;-57
2022/11/24 12:36:03;;;;;;;4.68;1.85;;;;;;;;;;5064002;28;20611;-57
2022/11/24 12:38:38;;;;;;;5.90;1.60;;;;;;;;;;5054898;28;20053;-57
2022/11/24 12:41:04;;;;;;;3.03;1.00;;;;;;;;;;5065190;28;20131;-57
2022/11/24 12:43:33;;;;;;;3.30;1.17;;;;;;;;;;5062102;28;20047;-57
2022/11/24 12:45:59;;;;;;;3.50;1.08;;;;;;;;;;5064418;28;20102;-57
2022/11/24 12:48:25;;;;;;;2.88;1.25;;;;;;;;;;5063399;28;20048;-57
2022/11/24 12:50:52;;;;;;;4.35;1.60;;;;;;;;;;5061878;28;20407;-57
2022/11/24 12:53:21;;;;;;;2.67;1.45;;;;;;;;;;5060939;28;20053;-57
2022/11/24 12:55:47;;;;;;;4.57;1.70;;;;;;;;;;5069826;28;20055;-57
2022/11/24 12:58:13;;;;;;;6.03;1.88;;;;;;;;;;5064019;28;20055;-57
2022/11/24 13:00:46;;;;;;;5.43;1.90;;;;;;;;;;5064085;28;20113;-57
2022/11/24 13:03:18;;;;;;;8.48;1.80;;;;;;;;;;5065841;28;20112;-57
2022/11/24 13:05:50;;;;;;;4.97;2.30;;;;;;;;;;5064821;28;20041;-57
2022/11/24 13:08:16;;;;;;;8.98;2.03;;;;;;;;;;5063591;28;20052;-57
2022/11/24 13:10:42;;;;;;;4.57;1.75;;;;;;;;;;5069013;28;20605;-57
2022/11/24 13:13:12;;;;;;;2.22;1.48;;;;;;;;;;5070802;28;20139;-57
2022/11/24 13:15:54;;;;;;;4.07;1.60;;;;;;;;;;5062657;28;20040;-57
2022/11/24 13:18:38;;;;;;;3.63;1.58;;;;;;;;;;5064647;28;20061;-57
2022/11/24 13:21:24;;;;;;;4.53;1.92;;;;;;;;;;5059360;28;20094;-57
2022/11/24 13:23:57;;;;;;;2.67;1.60;;;;;;;;;;5078289;28;20093;-57
2022/11/24 13:26:31;;;;;;;5.03;1.85;;;;;;;;;;5064432;28;20487;-58
2022/11/24 13:29:04;;;;;;;2.50;1.25;;;;;;;;;;5060657;28;20124;-56
2022/11/24 13:31:30;;;;;;;2.60;1.60;;;;;;;;;;5075319;28;20044;-57
2022/11/24 13:33:57;;;;;;;5.47;1.75;;;;;;;;;;5081447;28;20048;-57
2022/11/24 13:36:22;;;;;;;4.20;2.03;;;;;;;;;;5086797;28;20047;-57
2022/11/24 13:38:49;;;;;;;8.00;2.47;;;;;;;;;;5081369;28;20055;-57
2022/11/24 13:41:47;;;;;;;4.28;2.20;;;;;;;;;;5068299;28;20071;-57
2022/11/24 13:44:16;;;;;;;6.57;1.77;;;;;;;;;;5049689;28;20057;-56
2022/11/24 13:46:58;;;;;;;5.57;2.28;;;;;;;;;;5072163;28;20420;-57
2022/11/24 13:49:24;;;;;;;3.85;1.90;;;;;;;;;;5069963;28;20040;-57
2022/11/24 13:51:56;;;;;;;4.15;1.42;;;;;;;;;;5063710;28;20471;-58
2022/11/24 13:54:24;;;;;;;2.97;1.45;;;;;;;;;;5065044;28;20499;-57
2022/11/24 13:56:50;;;;;;;5.25;1.83;;;;;;;;;;5066086;28;20503;-57
2022/11/24 13:59:17;;;;;;;5.43;1.77;;;;;;;;;;5066932;28;20040;-57
2022/11/24 14:01:45;;;;;;;5.10;1.48;;;;;;;;;;5067618;28;20040;-57
2022/11/24 14:04:14;;;;;;;4.82;1.73;;;;;;;;;;5066568;28;20052;-57
2022/11/24 14:06:53;;;;;;;4.40;1.67;;;;;;;;;;5065099;28;20124;-57
2022/11/24 14:09:25;;;;;;;6.65;1.85;;;;;;;;;;5068385;28;20048;-57
2022/11/24 14:12:00;;;;;;;3.55;1.50;;;;;;;;;;5066786;28;20407;-57
2022/11/24 14:14:27;;;;;;;5.05;1.50;;;;;;;;;;5054924;28;20052;-57
2022/11/24 14:17:11;;;;;;;3.38;1.30;;;;;;;;;;5070464;28;20089;-57
2022/11/24 14:19:37;;;;;;;6.25;2.13;;;;;;;;;;5077888;28;20683;-57
2022/11/24 14:22:03;;;;;;;4.55;1.63;;;;;;;;;;5067966;28;20052;-57
2022/11/24 14:24:31;;;;;;;5.00;1.25;;;;;;;;;;5067287;28;20467;-58
2022/11/24 14:26:57;;;;;;;3.30;1.02;;;;;;;;;;5067405;28;20388;-55
2022/11/24 14:29:25;;;;;;;2.83;1.27;;;;;;;;;;5067464;28;20048;-58
2022/11/24 14:31:54;;;;;;;5.95;0.95;;;;;;;;;;5067531;28;20046;-65
2022/11/24 14:34:21;;;;;;;1.80;0.75;;;;;;;;;;5067997;28;20075;-60
2022/11/24 14:36:48;;;;;;;5.88;1.35;;;;;;;;;;5067429;28;20045;-59
2022/11/24 14:39:15;;;;;;;3.22;1.10;;;;;;;;;;5066329;28;20101;-59
2022/11/24 14:41:51;;;;;;;4.85;1.00;;;;;;;;;;5066626;28;20036;-59
2022/11/24 14:44:22;;;;;;;2.88;1.20;;;;;;;;;;5066858;28;20344;-60
2022/11/24 14:46:49;;;;;;;3.70;0.63;;;;;;;;;;5070067;28;20464;-60
2022/11/24 14:49:19;;;;;;;1.98;0.80;;;;;;;;;;5065160;28;20127;-60
2022/11/24 14:51:48;;;;;;;2.13;1.30;;;;;;;;;;5054863;28;20048;-59